sensor_id;sensor_type;location;lat;lon;timestamp;P1;durP1;ratioP1;P2;durP2;ratioP2
52320;SDS011;38261;54.090;13.382;2023-07-30T00:00:26;5.90;;;4.33;;
52320;SDS011;38261;54.090;13.382;2023-07-30T00:01:48;6.67;;;5.10;;
52320;SDS011;38261;54.090;13.382;2023-07-30T00:03:10;6.70;;;4.40;;
52320;SDS011;38261;54.090;13.382;2023-07-30T00:04:32;7.23;;;4.63;;
52320;SDS011;38261;54.090;13.382;2023-07-30T00:05:55;7.60;;;5.67;;
52320;SDS011;38261;54.090;13.382;2023-07-30T00:07:17;9.30;;;4.70;;
52320;SDS011;38261;54.090;13.382;2023-07-30T00:08:39;5.30;;;4.40;;
52320;SDS011;38261;54.090;13.382;2023-07-30T00:10:01;5.20;;;4.10;;
52320;SDS011;38261;54.090;13.382;2023-07-30T00:11:24;10.33;;;5.20;;
52320;SDS011;38261;54.090;13.382;2023-07-30T00:12:46;7.07;;;4.60;;
52320;SDS011;38261;54.090;13.382;2023-07-30T00:14:08;4.90;;;3.90;;
52320;SDS011;38261;54.090;13.382;2023-07-30T00:15:30;8.30;;;5.00;;
52320;SDS011;38261;54.090;13.382;2023-07-30T00:16:52;5.90;;;4.47;;
52320;SDS011;38261;54.090;13.382;2023-07-30T00:18:14;7.70;;;4.37;;
52320;SDS011;38261;54.090;13.382;2023-07-30T00:19:37;5.20;;;3.97;;
52320;SDS011;38261;54.090;13.382;2023-07-30T00:20:59;6.87;;;4.80;;
52320;SDS011;38261;54.090;13.382;2023-07-30T00:22:21;10.30;;;4.63;;
52320;SDS011;38261;54.090;13.382;2023-07-30T00:23:45;8.80;;;4.80;;
52320;SDS011;38261;54.090;13.382;2023-07-30T00:25:07;6.83;;;4.13;;
52320;SDS011;38261;54.090;13.382;2023-07-30T00:26:30;6.10;;;3.90;;
52320;SDS011;38261;54.090;13.382;2023-07-30T00:27:52;8.00;;;4.77;;
52320;SDS011;38261;54.090;13.382;2023-07-30T00:29:14;9.07;;;5.00;;
52320;SDS011;38261;54.090;13.382;2023-07-30T00:30:36;5.97;;;4.40;;
52320;SDS011;38261;54.090;13.382;2023-07-30T00:31:58;6.23;;;4.10;;
52320;SDS011;38261;54.090;13.382;2023-07-30T00:33:20;8.47;;;4.43;;
52320;SDS011;38261;54.090;13.382;2023-07-30T00:34:43;6.53;;;4.47;;
52320;SDS011;38261;54.090;13.382;2023-07-30T00:36:05;6.63;;;4.27;;
52320;SDS011;38261;54.090;13.382;2023-07-30T00:37:27;5.83;;;4.50;;
52320;SDS011;38261;54.090;13.382;2023-07-30T00:38:49;6.63;;;4.13;;
52320;SDS011;38261;54.090;13.382;2023-07-30T00:40:11;7.83;;;4.33;;
52320;SDS011;38261;54.090;13.382;2023-07-30T00:41:34;6.30;;;4.63;;
52320;SDS011;38261;54.090;13.382;2023-07-30T00:42:56;6.23;;;4.50;;
52320;SDS011;38261;54.090;13.382;2023-07-30T00:44:18;7.33;;;4.40;;
52320;SDS011;38261;54.090;13.382;2023-07-30T00:45:41;5.93;;;4.17;;
52320;SDS011;38261;54.090;13.382;2023-07-30T00:47:05;7.10;;;4.60;;
52320;SDS011;38261;54.090;13.382;2023-07-30T00:48:28;10.90;;;4.47;;
52320;SDS011;38261;54.090;13.382;2023-07-30T00:49:51;11.60;;;3.83;;
52320;SDS011;38261;54.090;13.382;2023-07-30T00:51:14;7.10;;;5.10;;
52320;SDS011;38261;54.090;13.382;2023-07-30T00:52:37;7.93;;;4.50;;
52320;SDS011;38261;54.090;13.382;2023-07-30T00:54:01;10.07;;;4.37;;
52320;SDS011;38261;54.090;13.382;2023-07-30T00:55:23;7.80;;;5.00;;
52320;SDS011;38261;54.090;13.382;2023-07-30T00:56:48;9.10;;;5.20;;
52320;SDS011;38261;54.090;13.382;2023-07-30T00:58:13;8.97;;;4.40;;
52320;SDS011;38261;54.090;13.382;2023-07-30T00:59:35;7.93;;;5.00;;
52320;SDS011;38261;54.090;13.382;2023-07-30T01:00:58;5.27;;;3.90;;
52320;SDS011;38261;54.090;13.382;2023-07-30T01:02:20;5.83;;;4.07;;
52320;SDS011;38261;54.090;13.382;2023-07-30T01:03:43;8.73;;;4.90;;
52320;SDS011;38261;54.090;13.382;2023-07-30T01:05:05;11.53;;;5.70;;
52320;SDS011;38261;54.090;13.382;2023-07-30T01:06:28;7.73;;;4.70;;
52320;SDS011;38261;54.090;13.382;2023-07-30T01:07:50;7.03;;;4.70;;
52320;SDS011;38261;54.090;13.382;2023-07-30T01:09:12;8.40;;;4.77;;
52320;SDS011;38261;54.090;13.382;2023-07-30T01:10:35;8.60;;;4.97;;
52320;SDS011;38261;54.090;13.382;2023-07-30T01:11:58;8.63;;;5.70;;
52320;SDS011;38261;54.090;13.382;2023-07-30T01:13:23;12.37;;;5.30;;
52320;SDS011;38261;54.090;13.382;2023-07-30T01:14:45;8.30;;;4.77;;
52320;SDS011;38261;54.090;13.382;2023-07-30T01:16:09;8.30;;;5.40;;
52320;SDS011;38261;54.090;13.382;2023-07-30T01:17:31;7.63;;;5.43;;
52320;SDS011;38261;54.090;13.382;2023-07-30T01:18:54;9.40;;;6.00;;
52320;SDS011;38261;54.090;13.382;2023-07-30T01:20:16;10.20;;;5.77;;
52320;SDS011;38261;54.090;13.382;2023-07-30T01:21:38;16.70;;;5.83;;
52320;SDS011;38261;54.090;13.382;2023-07-30T01:23:01;12.03;;;5.87;;
52320;SDS011;38261;54.090;13.382;2023-07-30T01:24:23;8.90;;;6.23;;
52320;SDS011;38261;54.090;13.382;2023-07-30T01:25:45;8.50;;;5.43;;
52320;SDS011;38261;54.090;13.382;2023-07-30T01:27:25;8.10;;;5.50;;
52320;SDS011;38261;54.090;13.382;2023-07-30T01:28:50;9.20;;;5.40;;
52320;SDS011;38261;54.090;13.382;2023-07-30T01:31:47;16.37;;;5.93;;
52320;SDS011;38261;54.090;13.382;2023-07-30T01:33:16;10.03;;;5.30;;
52320;SDS011;38261;54.090;13.382;2023-07-30T01:34:39;8.03;;;5.43;;
52320;SDS011;38261;54.090;13.382;2023-07-30T01:36:02;9.63;;;5.50;;
52320;SDS011;38261;54.090;13.382;2023-07-30T01:37:26;12.30;;;6.20;;
52320;SDS011;38261;54.090;13.382;2023-07-30T01:38:49;8.13;;;5.67;;
52320;SDS011;38261;54.090;13.382;2023-07-30T01:40:12;10.43;;;5.73;;
52320;SDS011;38261;54.090;13.382;2023-07-30T01:41:35;8.27;;;5.63;;
52320;SDS011;38261;54.090;13.382;2023-07-30T01:42:58;16.63;;;6.30;;
52320;SDS011;38261;54.090;13.382;2023-07-30T01:44:20;11.10;;;5.73;;
52320;SDS011;38261;54.090;13.382;2023-07-30T01:45:42;13.13;;;6.23;;
52320;SDS011;38261;54.090;13.382;2023-07-30T01:47:04;8.43;;;5.53;;
52320;SDS011;38261;54.090;13.382;2023-07-30T01:48:27;9.60;;;5.83;;
52320;SDS011;38261;54.090;13.382;2023-07-30T01:49:49;11.53;;;6.40;;
52320;SDS011;38261;54.090;13.382;2023-07-30T01:51:11;8.10;;;5.43;;
52320;SDS011;38261;54.090;13.382;2023-07-30T01:52:33;13.77;;;6.53;;
52320;SDS011;38261;54.090;13.382;2023-07-30T01:53:55;9.47;;;6.37;;
52320;SDS011;38261;54.090;13.382;2023-07-30T01:55:17;11.87;;;5.93;;
52320;SDS011;38261;54.090;13.382;2023-07-30T01:56:39;9.40;;;6.00;;
52320;SDS011;38261;54.090;13.382;2023-07-30T01:58:02;10.67;;;5.77;;
52320;SDS011;38261;54.090;13.382;2023-07-30T01:59:24;10.40;;;5.50;;
52320;SDS011;38261;54.090;13.382;2023-07-30T02:00:46;12.07;;;5.60;;
52320;SDS011;38261;54.090;13.382;2023-07-30T02:02:09;14.33;;;5.93;;
52320;SDS011;38261;54.090;13.382;2023-07-30T02:03:31;12.00;;;5.73;;
52320;SDS011;38261;54.090;13.382;2023-07-30T02:04:53;9.33;;;5.63;;
52320;SDS011;38261;54.090;13.382;2023-07-30T02:06:15;11.10;;;6.00;;
52320;SDS011;38261;54.090;13.382;2023-07-30T02:07:37;11.70;;;6.60;;
52320;SDS011;38261;54.090;13.382;2023-07-30T02:09:00;12.67;;;5.93;;
52320;SDS011;38261;54.090;13.382;2023-07-30T02:10:23;13.00;;;6.00;;
52320;SDS011;38261;54.090;13.382;2023-07-30T02:11:46;12.03;;;5.87;;
52320;SDS011;38261;54.090;13.382;2023-07-30T02:13:08;12.43;;;5.63;;
52320;SDS011;38261;54.090;13.382;2023-07-30T02:14:30;9.63;;;5.60;;
52320;SDS011;38261;54.090;13.382;2023-07-30T02:15:53;10.90;;;5.47;;
52320;SDS011;38261;54.090;13.382;2023-07-30T02:17:15;11.47;;;5.30;;
52320;SDS011;38261;54.090;13.382;2023-07-30T02:18:37;7.73;;;5.47;;
52320;SDS011;38261;54.090;13.382;2023-07-30T02:20:00;11.47;;;6.03;;
52320;SDS011;38261;54.090;13.382;2023-07-30T02:21:22;15.83;;;6.07;;
52320;SDS011;38261;54.090;13.382;2023-07-30T02:22:44;7.23;;;5.07;;
52320;SDS011;38261;54.090;13.382;2023-07-30T02:24:06;14.30;;;5.83;;
52320;SDS011;38261;54.090;13.382;2023-07-30T02:25:31;13.50;;;6.50;;
52320;SDS011;38261;54.090;13.382;2023-07-30T02:26:53;18.37;;;6.40;;
52320;SDS011;38261;54.090;13.382;2023-07-30T02:28:15;15.30;;;6.73;;
52320;SDS011;38261;54.090;13.382;2023-07-30T02:29:38;13.30;;;6.20;;
52320;SDS011;38261;54.090;13.382;2023-07-30T02:31:00;10.13;;;5.70;;
52320;SDS011;38261;54.090;13.382;2023-07-30T02:32:22;9.53;;;5.83;;
52320;SDS011;38261;54.090;13.382;2023-07-30T02:33:45;14.90;;;6.10;;
52320;SDS011;38261;54.090;13.382;2023-07-30T02:35:07;11.20;;;5.97;;
52320;SDS011;38261;54.090;13.382;2023-07-30T02:36:30;10.73;;;5.83;;
52320;SDS011;38261;54.090;13.382;2023-07-30T02:37:52;8.53;;;5.00;;
52320;SDS011;38261;54.090;13.382;2023-07-30T02:39:14;9.50;;;6.30;;
52320;SDS011;38261;54.090;13.382;2023-07-30T02:40:37;10.63;;;5.40;;
52320;SDS011;38261;54.090;13.382;2023-07-30T02:41:59;10.57;;;5.37;;
52320;SDS011;38261;54.090;13.382;2023-07-30T02:43:21;10.37;;;6.10;;
52320;SDS011;38261;54.090;13.382;2023-07-30T02:44:44;9.17;;;4.93;;
52320;SDS011;38261;54.090;13.382;2023-07-30T02:46:06;12.13;;;6.27;;
52320;SDS011;38261;54.090;13.382;2023-07-30T02:47:28;11.33;;;5.63;;
52320;SDS011;38261;54.090;13.382;2023-07-30T02:48:50;12.87;;;5.00;;
52320;SDS011;38261;54.090;13.382;2023-07-30T02:50:13;9.37;;;5.67;;
52320;SDS011;38261;54.090;13.382;2023-07-30T02:51:35;8.70;;;5.70;;
52320;SDS011;38261;54.090;13.382;2023-07-30T02:52:58;11.13;;;5.63;;
52320;SDS011;38261;54.090;13.382;2023-07-30T02:54:20;10.43;;;5.20;;
52320;SDS011;38261;54.090;13.382;2023-07-30T02:55:43;10.30;;;5.80;;
52320;SDS011;38261;54.090;13.382;2023-07-30T02:57:05;16.10;;;5.83;;
52320;SDS011;38261;54.090;13.382;2023-07-30T02:58:27;11.57;;;5.10;;
52320;SDS011;38261;54.090;13.382;2023-07-30T02:59:50;7.20;;;5.37;;
52320;SDS011;38261;54.090;13.382;2023-07-30T03:01:12;20.93;;;5.60;;
52320;SDS011;38261;54.090;13.382;2023-07-30T03:02:34;16.73;;;5.87;;
52320;SDS011;38261;54.090;13.382;2023-07-30T03:03:56;18.47;;;5.90;;
52320;SDS011;38261;54.090;13.382;2023-07-30T03:05:19;8.57;;;5.00;;
52320;SDS011;38261;54.090;13.382;2023-07-30T03:06:41;11.37;;;5.40;;
52320;SDS011;38261;54.090;13.382;2023-07-30T03:08:03;11.07;;;5.60;;
52320;SDS011;38261;54.090;13.382;2023-07-30T03:09:25;10.70;;;5.80;;
52320;SDS011;38261;54.090;13.382;2023-07-30T03:10:49;14.40;;;6.30;;
52320;SDS011;38261;54.090;13.382;2023-07-30T03:12:11;16.33;;;6.30;;
52320;SDS011;38261;54.090;13.382;2023-07-30T03:13:33;12.33;;;6.43;;
52320;SDS011;38261;54.090;13.382;2023-07-30T03:14:55;10.10;;;5.80;;
52320;SDS011;38261;54.090;13.382;2023-07-30T03:16:18;11.93;;;5.97;;
52320;SDS011;38261;54.090;13.382;2023-07-30T03:17:40;11.43;;;5.70;;
52320;SDS011;38261;54.090;13.382;2023-07-30T03:19:02;14.33;;;6.70;;
52320;SDS011;38261;54.090;13.382;2023-07-30T03:20:24;11.47;;;6.80;;
52320;SDS011;38261;54.090;13.382;2023-07-30T03:21:46;24.73;;;6.60;;
52320;SDS011;38261;54.090;13.382;2023-07-30T03:23:08;8.60;;;6.53;;
52320;SDS011;38261;54.090;13.382;2023-07-30T03:24:30;16.23;;;5.80;;
52320;SDS011;38261;54.090;13.382;2023-07-30T03:25:53;14.33;;;6.10;;
52320;SDS011;38261;54.090;13.382;2023-07-30T03:27:15;10.30;;;5.90;;
52320;SDS011;38261;54.090;13.382;2023-07-30T03:28:37;12.03;;;5.30;;
52320;SDS011;38261;54.090;13.382;2023-07-30T03:30:01;13.10;;;6.07;;
52320;SDS011;38261;54.090;13.382;2023-07-30T03:31:24;10.40;;;5.43;;
52320;SDS011;38261;54.090;13.382;2023-07-30T03:32:46;23.03;;;6.30;;
52320;SDS011;38261;54.090;13.382;2023-07-30T03:34:08;10.67;;;5.63;;
52320;SDS011;38261;54.090;13.382;2023-07-30T03:35:30;14.90;;;6.40;;
52320;SDS011;38261;54.090;13.382;2023-07-30T03:36:52;12.00;;;5.67;;
52320;SDS011;38261;54.090;13.382;2023-07-30T03:38:14;10.50;;;4.93;;
52320;SDS011;38261;54.090;13.382;2023-07-30T03:39:37;9.70;;;5.20;;
52320;SDS011;38261;54.090;13.382;2023-07-30T03:40:59;12.10;;;6.13;;
52320;SDS011;38261;54.090;13.382;2023-07-30T03:42:21;11.10;;;5.87;;
52320;SDS011;38261;54.090;13.382;2023-07-30T03:43:43;11.70;;;5.30;;
52320;SDS011;38261;54.090;13.382;2023-07-30T03:45:05;10.43;;;5.67;;
52320;SDS011;38261;54.090;13.382;2023-07-30T03:46:28;14.53;;;4.83;;
52320;SDS011;38261;54.090;13.382;2023-07-30T03:47:50;11.23;;;5.20;;
52320;SDS011;38261;54.090;13.382;2023-07-30T03:49:12;11.20;;;5.10;;
52320;SDS011;38261;54.090;13.382;2023-07-30T03:50:35;11.03;;;5.63;;
52320;SDS011;38261;54.090;13.382;2023-07-30T03:51:57;9.23;;;4.97;;
52320;SDS011;38261;54.090;13.382;2023-07-30T03:53:19;13.00;;;5.17;;
52320;SDS011;38261;54.090;13.382;2023-07-30T03:54:41;9.07;;;4.93;;
52320;SDS011;38261;54.090;13.382;2023-07-30T03:56:03;7.33;;;5.13;;
52320;SDS011;38261;54.090;13.382;2023-07-30T03:57:26;9.67;;;5.10;;
52320;SDS011;38261;54.090;13.382;2023-07-30T03:58:48;10.67;;;4.70;;
52320;SDS011;38261;54.090;13.382;2023-07-30T04:00:10;8.63;;;4.30;;
52320;SDS011;38261;54.090;13.382;2023-07-30T04:01:33;4.87;;;3.33;;
52320;SDS011;38261;54.090;13.382;2023-07-30T04:02:56;9.43;;;3.80;;
52320;SDS011;38261;54.090;13.382;2023-07-30T04:04:18;11.20;;;3.70;;
52320;SDS011;38261;54.090;13.382;2023-07-30T04:05:40;11.60;;;3.80;;
52320;SDS011;38261;54.090;13.382;2023-07-30T04:07:02;6.83;;;3.30;;
52320;SDS011;38261;54.090;13.382;2023-07-30T04:08:25;9.97;;;3.23;;
52320;SDS011;38261;54.090;13.382;2023-07-30T04:09:47;10.17;;;3.00;;
52320;SDS011;38261;54.090;13.382;2023-07-30T04:11:09;9.60;;;2.57;;
52320;SDS011;38261;54.090;13.382;2023-07-30T04:12:31;8.50;;;3.70;;
52320;SDS011;38261;54.090;13.382;2023-07-30T04:13:53;6.17;;;3.10;;
52320;SDS011;38261;54.090;13.382;2023-07-30T04:15:15;11.90;;;2.87;;
52320;SDS011;38261;54.090;13.382;2023-07-30T04:16:37;4.67;;;2.90;;
52320;SDS011;38261;54.090;13.382;2023-07-30T04:18:00;7.40;;;2.30;;
52320;SDS011;38261;54.090;13.382;2023-07-30T04:19:22;9.63;;;3.03;;
52320;SDS011;38261;54.090;13.382;2023-07-30T04:20:44;6.10;;;2.80;;
52320;SDS011;38261;54.090;13.382;2023-07-30T04:22:06;10.13;;;3.20;;
52320;SDS011;38261;54.090;13.382;2023-07-30T04:23:28;11.93;;;3.03;;
52320;SDS011;38261;54.090;13.382;2023-07-30T04:24:51;7.80;;;2.73;;
52320;SDS011;38261;54.090;13.382;2023-07-30T04:26:13;10.97;;;2.77;;
52320;SDS011;38261;54.090;13.382;2023-07-30T04:27:35;5.13;;;2.63;;
52320;SDS011;38261;54.090;13.382;2023-07-30T04:28:57;4.97;;;2.40;;
52320;SDS011;38261;54.090;13.382;2023-07-30T04:30:19;9.13;;;2.57;;
52320;SDS011;38261;54.090;13.382;2023-07-30T04:31:41;5.47;;;2.43;;
52320;SDS011;38261;54.090;13.382;2023-07-30T04:33:03;5.07;;;2.33;;
52320;SDS011;38261;54.090;13.382;2023-07-30T04:34:26;6.33;;;2.30;;
52320;SDS011;38261;54.090;13.382;2023-07-30T04:35:48;9.50;;;2.20;;
52320;SDS011;38261;54.090;13.382;2023-07-30T04:37:10;4.10;;;2.80;;
52320;SDS011;38261;54.090;13.382;2023-07-30T04:38:32;6.93;;;1.93;;
52320;SDS011;38261;54.090;13.382;2023-07-30T04:39:54;5.40;;;2.57;;
52320;SDS011;38261;54.090;13.382;2023-07-30T04:41:16;3.83;;;2.37;;
52320;SDS011;38261;54.090;13.382;2023-07-30T04:42:40;7.50;;;2.40;;
52320;SDS011;38261;54.090;13.382;2023-07-30T04:44:02;5.60;;;2.50;;
52320;SDS011;38261;54.090;13.382;2023-07-30T04:45:24;4.63;;;1.90;;
52320;SDS011;38261;54.090;13.382;2023-07-30T04:46:46;4.50;;;2.30;;
52320;SDS011;38261;54.090;13.382;2023-07-30T04:48:09;12.10;;;2.33;;
52320;SDS011;38261;54.090;13.382;2023-07-30T04:49:31;2.70;;;2.10;;
52320;SDS011;38261;54.090;13.382;2023-07-30T04:50:53;6.30;;;2.40;;
52320;SDS011;38261;54.090;13.382;2023-07-30T04:52:15;9.90;;;2.67;;
52320;SDS011;38261;54.090;13.382;2023-07-30T04:53:37;4.13;;;2.30;;
52320;SDS011;38261;54.090;13.382;2023-07-30T04:54:59;8.67;;;2.97;;
52320;SDS011;38261;54.090;13.382;2023-07-30T04:56:21;8.50;;;2.87;;
52320;SDS011;38261;54.090;13.382;2023-07-30T04:57:43;11.50;;;2.60;;
52320;SDS011;38261;54.090;13.382;2023-07-30T04:59:05;7.53;;;3.00;;
52320;SDS011;38261;54.090;13.382;2023-07-30T05:00:28;6.43;;;2.73;;
52320;SDS011;38261;54.090;13.382;2023-07-30T05:01:50;5.27;;;2.70;;
52320;SDS011;38261;54.090;13.382;2023-07-30T05:03:12;3.67;;;2.67;;
52320;SDS011;38261;54.090;13.382;2023-07-30T05:04:34;11.43;;;2.57;;
52320;SDS011;38261;54.090;13.382;2023-07-30T05:05:56;4.07;;;2.30;;
52320;SDS011;38261;54.090;13.382;2023-07-30T05:07:18;9.30;;;2.40;;
52320;SDS011;38261;54.090;13.382;2023-07-30T05:08:40;4.43;;;2.50;;
52320;SDS011;38261;54.090;13.382;2023-07-30T05:10:03;5.50;;;2.97;;
52320;SDS011;38261;54.090;13.382;2023-07-30T05:11:28;9.27;;;3.10;;
52320;SDS011;38261;54.090;13.382;2023-07-30T05:12:50;8.40;;;3.00;;
52320;SDS011;38261;54.090;13.382;2023-07-30T05:14:12;7.63;;;2.80;;
52320;SDS011;38261;54.090;13.382;2023-07-30T05:15:34;8.70;;;3.23;;
52320;SDS011;38261;54.090;13.382;2023-07-30T05:16:56;4.60;;;3.20;;
52320;SDS011;38261;54.090;13.382;2023-07-30T05:18:18;5.70;;;3.00;;
52320;SDS011;38261;54.090;13.382;2023-07-30T05:19:41;5.13;;;3.33;;
52320;SDS011;38261;54.090;13.382;2023-07-30T05:21:03;8.20;;;3.37;;
52320;SDS011;38261;54.090;13.382;2023-07-30T05:22:25;7.83;;;2.93;;
52320;SDS011;38261;54.090;13.382;2023-07-30T05:23:47;4.57;;;2.90;;
52320;SDS011;38261;54.090;13.382;2023-07-30T05:25:09;4.70;;;2.43;;
52320;SDS011;38261;54.090;13.382;2023-07-30T05:26:31;5.20;;;3.10;;
52320;SDS011;38261;54.090;13.382;2023-07-30T05:27:53;5.13;;;2.57;;
52320;SDS011;38261;54.090;13.382;2023-07-30T05:29:16;5.13;;;2.60;;
52320;SDS011;38261;54.090;13.382;2023-07-30T05:30:38;3.93;;;2.67;;
52320;SDS011;38261;54.090;13.382;2023-07-30T05:32:00;8.93;;;2.80;;
52320;SDS011;38261;54.090;13.382;2023-07-30T05:33:22;9.90;;;3.37;;
52320;SDS011;38261;54.090;13.382;2023-07-30T05:34:45;7.70;;;2.90;;
52320;SDS011;38261;54.090;13.382;2023-07-30T05:36:07;7.97;;;2.83;;
52320;SDS011;38261;54.090;13.382;2023-07-30T05:37:29;5.03;;;2.60;;
52320;SDS011;38261;54.090;13.382;2023-07-30T05:38:51;5.40;;;2.60;;
52320;SDS011;38261;54.090;13.382;2023-07-30T05:40:13;4.53;;;2.90;;
52320;SDS011;38261;54.090;13.382;2023-07-30T05:41:35;4.83;;;2.47;;
52320;SDS011;38261;54.090;13.382;2023-07-30T05:42:58;6.10;;;2.70;;
52320;SDS011;38261;54.090;13.382;2023-07-30T05:44:22;6.10;;;2.80;;
52320;SDS011;38261;54.090;13.382;2023-07-30T05:45:44;3.70;;;2.40;;
52320;SDS011;38261;54.090;13.382;2023-07-30T05:47:06;4.63;;;2.33;;
52320;SDS011;38261;54.090;13.382;2023-07-30T05:48:28;6.00;;;2.60;;
52320;SDS011;38261;54.090;13.382;2023-07-30T05:49:50;7.53;;;3.63;;
52320;SDS011;38261;54.090;13.382;2023-07-30T05:51:12;3.80;;;2.37;;
52320;SDS011;38261;54.090;13.382;2023-07-30T05:52:35;6.20;;;2.50;;
52320;SDS011;38261;54.090;13.382;2023-07-30T05:53:57;6.73;;;2.60;;
52320;SDS011;38261;54.090;13.382;2023-07-30T05:55:19;10.43;;;3.03;;
52320;SDS011;38261;54.090;13.382;2023-07-30T05:56:41;8.70;;;2.77;;
52320;SDS011;38261;54.090;13.382;2023-07-30T05:58:03;6.27;;;2.40;;
52320;SDS011;38261;54.090;13.382;2023-07-30T05:59:25;5.40;;;2.43;;
52320;SDS011;38261;54.090;13.382;2023-07-30T06:00:47;6.73;;;2.73;;
52320;SDS011;38261;54.090;13.382;2023-07-30T06:02:10;5.97;;;2.93;;
52320;SDS011;38261;54.090;13.382;2023-07-30T06:03:32;6.13;;;2.30;;
52320;SDS011;38261;54.090;13.382;2023-07-30T06:04:54;4.03;;;2.20;;
52320;SDS011;38261;54.090;13.382;2023-07-30T06:06:16;6.40;;;2.50;;
52320;SDS011;38261;54.090;13.382;2023-07-30T06:07:38;7.53;;;2.40;;
52320;SDS011;38261;54.090;13.382;2023-07-30T06:09:01;6.70;;;2.97;;
52320;SDS011;38261;54.090;13.382;2023-07-30T06:10:23;6.17;;;2.33;;
52320;SDS011;38261;54.090;13.382;2023-07-30T06:11:45;7.03;;;2.23;;
52320;SDS011;38261;54.090;13.382;2023-07-30T06:13:07;3.30;;;2.30;;
52320;SDS011;38261;54.090;13.382;2023-07-30T06:14:29;3.80;;;1.90;;
52320;SDS011;38261;54.090;13.382;2023-07-30T06:15:52;5.87;;;2.33;;
52320;SDS011;38261;54.090;13.382;2023-07-30T06:17:14;3.63;;;1.87;;
52320;SDS011;38261;54.090;13.382;2023-07-30T06:18:36;4.67;;;2.20;;
52320;SDS011;38261;54.090;13.382;2023-07-30T06:19:58;8.30;;;1.90;;
52320;SDS011;38261;54.090;13.382;2023-07-30T06:21:20;6.80;;;2.33;;
52320;SDS011;38261;54.090;13.382;2023-07-30T06:22:43;9.37;;;2.60;;
52320;SDS011;38261;54.090;13.382;2023-07-30T06:24:05;6.70;;;1.90;;
52320;SDS011;38261;54.090;13.382;2023-07-30T06:25:27;4.60;;;1.83;;
52320;SDS011;38261;54.090;13.382;2023-07-30T06:26:49;5.17;;;1.70;;
52320;SDS011;38261;54.090;13.382;2023-07-30T06:28:11;4.37;;;1.70;;
52320;SDS011;38261;54.090;13.382;2023-07-30T06:29:34;2.40;;;1.60;;
52320;SDS011;38261;54.090;13.382;2023-07-30T06:30:59;6.40;;;2.20;;
52320;SDS011;38261;54.090;13.382;2023-07-30T06:32:22;6.33;;;2.20;;
52320;SDS011;38261;54.090;13.382;2023-07-30T06:33:45;4.57;;;2.03;;
52320;SDS011;38261;54.090;13.382;2023-07-30T06:35:07;4.40;;;2.10;;
52320;SDS011;38261;54.090;13.382;2023-07-30T06:36:29;4.93;;;2.20;;
52320;SDS011;38261;54.090;13.382;2023-07-30T06:37:52;3.60;;;1.90;;
52320;SDS011;38261;54.090;13.382;2023-07-30T06:39:14;6.33;;;2.20;;
52320;SDS011;38261;54.090;13.382;2023-07-30T06:40:36;6.60;;;2.00;;
52320;SDS011;38261;54.090;13.382;2023-07-30T06:41:58;6.67;;;2.70;;
52320;SDS011;38261;54.090;13.382;2023-07-30T06:43:20;4.40;;;2.03;;
52320;SDS011;38261;54.090;13.382;2023-07-30T06:44:42;4.17;;;2.07;;
52320;SDS011;38261;54.090;13.382;2023-07-30T06:46:05;7.00;;;2.10;;
52320;SDS011;38261;54.090;13.382;2023-07-30T06:47:27;7.00;;;2.60;;
52320;SDS011;38261;54.090;13.382;2023-07-30T06:48:50;5.33;;;2.23;;
52320;SDS011;38261;54.090;13.382;2023-07-30T06:50:12;4.97;;;2.47;;
52320;SDS011;38261;54.090;13.382;2023-07-30T06:51:34;10.30;;;1.97;;
52320;SDS011;38261;54.090;13.382;2023-07-30T06:52:57;8.00;;;2.40;;
52320;SDS011;38261;54.090;13.382;2023-07-30T06:54:19;6.07;;;2.10;;
52320;SDS011;38261;54.090;13.382;2023-07-30T06:55:42;5.20;;;1.83;;
52320;SDS011;38261;54.090;13.382;2023-07-30T06:57:06;4.70;;;1.60;;
52320;SDS011;38261;54.090;13.382;2023-07-30T06:58:29;6.10;;;1.60;;
52320;SDS011;38261;54.090;13.382;2023-07-30T06:59:51;3.53;;;1.70;;
52320;SDS011;38261;54.090;13.382;2023-07-30T07:01:13;5.17;;;1.97;;
52320;SDS011;38261;54.090;13.382;2023-07-30T07:02:35;3.90;;;1.97;;
52320;SDS011;38261;54.090;13.382;2023-07-30T07:03:58;6.30;;;2.00;;
52320;SDS011;38261;54.090;13.382;2023-07-30T07:05:20;4.40;;;2.23;;
52320;SDS011;38261;54.090;13.382;2023-07-30T07:06:43;3.90;;;2.03;;
52320;SDS011;38261;54.090;13.382;2023-07-30T07:08:05;3.20;;;1.80;;
52320;SDS011;38261;54.090;13.382;2023-07-30T07:09:27;5.77;;;2.10;;
52320;SDS011;38261;54.090;13.382;2023-07-30T07:10:49;5.37;;;1.87;;
52320;SDS011;38261;54.090;13.382;2023-07-30T07:12:11;3.80;;;1.73;;
52320;SDS011;38261;54.090;13.382;2023-07-30T07:13:34;3.13;;;1.67;;
52320;SDS011;38261;54.090;13.382;2023-07-30T07:14:56;4.27;;;1.57;;
52320;SDS011;38261;54.090;13.382;2023-07-30T07:16:20;7.57;;;2.13;;
52320;SDS011;38261;54.090;13.382;2023-07-30T07:17:42;3.23;;;1.47;;
52320;SDS011;38261;54.090;13.382;2023-07-30T07:19:04;6.13;;;2.20;;
52320;SDS011;38261;54.090;13.382;2023-07-30T07:20:27;3.53;;;2.00;;
52320;SDS011;38261;54.090;13.382;2023-07-30T07:21:49;7.73;;;1.80;;
52320;SDS011;38261;54.090;13.382;2023-07-30T07:23:11;4.40;;;1.73;;
52320;SDS011;38261;54.090;13.382;2023-07-30T07:24:34;6.97;;;1.90;;
52320;SDS011;38261;54.090;13.382;2023-07-30T07:25:56;2.63;;;1.53;;
52320;SDS011;38261;54.090;13.382;2023-07-30T07:27:19;3.00;;;1.83;;
52320;SDS011;38261;54.090;13.382;2023-07-30T07:28:41;4.10;;;1.77;;
52320;SDS011;38261;54.090;13.382;2023-07-30T07:30:03;4.47;;;2.00;;
52320;SDS011;38261;54.090;13.382;2023-07-30T07:31:25;2.50;;;1.37;;
52320;SDS011;38261;54.090;13.382;2023-07-30T07:32:48;6.40;;;2.60;;
52320;SDS011;38261;54.090;13.382;2023-07-30T07:34:13;4.23;;;2.00;;
52320;SDS011;38261;54.090;13.382;2023-07-30T07:35:35;4.43;;;1.93;;
52320;SDS011;38261;54.090;13.382;2023-07-30T07:36:57;19.40;;;2.00;;
52320;SDS011;38261;54.090;13.382;2023-07-30T07:38:19;5.30;;;2.50;;
52320;SDS011;38261;54.090;13.382;2023-07-30T07:39:42;11.23;;;2.30;;
52320;SDS011;38261;54.090;13.382;2023-07-30T07:41:05;10.43;;;2.10;;
52320;SDS011;38261;54.090;13.382;2023-07-30T07:42:27;4.60;;;2.10;;
52320;SDS011;38261;54.090;13.382;2023-07-30T07:43:50;6.67;;;2.60;;
52320;SDS011;38261;54.090;13.382;2023-07-30T07:45:14;9.37;;;2.27;;
52320;SDS011;38261;54.090;13.382;2023-07-30T07:46:36;6.07;;;2.07;;
52320;SDS011;38261;54.090;13.382;2023-07-30T07:47:58;9.70;;;3.10;;
52320;SDS011;38261;54.090;13.382;2023-07-30T07:49:21;9.57;;;2.87;;
52320;SDS011;38261;54.090;13.382;2023-07-30T07:50:43;10.70;;;2.67;;
52320;SDS011;38261;54.090;13.382;2023-07-30T07:52:06;8.47;;;2.90;;
52320;SDS011;38261;54.090;13.382;2023-07-30T07:53:28;3.57;;;1.90;;
52320;SDS011;38261;54.090;13.382;2023-07-30T07:54:51;7.13;;;2.23;;
52320;SDS011;38261;54.090;13.382;2023-07-30T07:56:13;3.07;;;2.20;;
52320;SDS011;38261;54.090;13.382;2023-07-30T07:57:35;5.17;;;2.23;;
52320;SDS011;38261;54.090;13.382;2023-07-30T07:58:59;5.37;;;2.17;;
52320;SDS011;38261;54.090;13.382;2023-07-30T08:00:21;9.43;;;2.70;;
52320;SDS011;38261;54.090;13.382;2023-07-30T08:01:44;7.40;;;2.43;;
52320;SDS011;38261;54.090;13.382;2023-07-30T08:03:06;6.73;;;2.20;;
52320;SDS011;38261;54.090;13.382;2023-07-30T08:04:28;4.43;;;2.43;;
52320;SDS011;38261;54.090;13.382;2023-07-30T08:05:50;5.20;;;2.50;;
52320;SDS011;38261;54.090;13.382;2023-07-30T08:07:12;5.13;;;1.97;;
52320;SDS011;38261;54.090;13.382;2023-07-30T08:08:34;3.77;;;2.20;;